Řízení letového provozu České republiky
Letiste: LKKB Aktualizace: 23.08.2017 07:08:06  UTC
 METAR LKKB 23.08. 07:00 ...
METAR LKKB 230700Z 22003KT 140V290 CAVOK 13/09 Q1021 NOSIG =
 TAF LKKB 23.08. 05:00 ...
TAF LKKB 230500Z 2306/2406 21004KT CAVOK      BECMG 2309/2311 06006KT SCT045      BECMG 2313/2315 CAVOK      BECMG 2317/2319 VRB01KT      BECMG 2403/2405 5000 BR=